sensor_id;sensor_type;location;lat;lon;timestamp;pressure;altitude;pressure_sealevel;temperature;humidity
61055;BME280;46939;48.940;8.258;2023-01-30T00:01:02;101204.66;;;7.90;42.35
61055;BME280;46939;48.940;8.258;2023-01-30T00:03:31;101198.19;;;7.56;42.75
61055;BME280;46939;48.940;8.258;2023-01-30T00:06:00;101191.69;;;7.33;43.33
61055;BME280;46939;48.940;8.258;2023-01-30T00:08:33;101189.47;;;7.28;43.47
61055;BME280;46939;48.940;8.258;2023-01-30T00:11:03;101176.00;;;7.04;44.04
61055;BME280;46939;48.940;8.258;2023-01-30T00:13:31;101165.59;;;7.30;43.52
61055;BME280;46939;48.940;8.258;2023-01-30T00:16:00;101181.09;;;7.15;43.65
61055;BME280;46939;48.940;8.258;2023-01-30T00:18:28;101191.75;;;7.14;43.59
61055;BME280;46939;48.940;8.258;2023-01-30T00:20:58;101179.66;;;7.48;42.93
61055;BME280;46939;48.940;8.258;2023-01-30T00:23:28;101184.88;;;7.58;42.67
61055;BME280;46939;48.940;8.258;2023-01-30T00:26:00;101189.44;;;7.38;43.37
61055;BME280;46939;48.940;8.258;2023-01-30T00:28:28;101189.66;;;7.45;42.95
61055;BME280;46939;48.940;8.258;2023-01-30T00:30:57;101200.63;;;7.50;43.07
61055;BME280;46939;48.940;8.258;2023-01-30T00:33:26;101231.38;;;7.59;42.67
61055;BME280;46939;48.940;8.258;2023-01-30T00:35:56;101239.16;;;7.78;42.21
61055;BME280;46939;48.940;8.258;2023-01-30T00:38:24;101252.44;;;7.87;42.16
61055;BME280;46939;48.940;8.258;2023-01-30T00:40:53;101264.91;;;7.94;41.80
61055;BME280;46939;48.940;8.258;2023-01-30T00:43:24;101266.97;;;7.73;42.32
61055;BME280;46939;48.940;8.258;2023-01-30T00:46:11;101265.28;;;7.44;42.85
61055;BME280;46939;48.940;8.258;2023-01-30T00:49:04;101251.47;;;7.60;42.82
61055;BME280;46939;48.940;8.258;2023-01-30T00:51:33;101266.41;;;7.42;43.21
61055;BME280;46939;48.940;8.258;2023-01-30T00:54:01;101260.28;;;7.51;42.67
61055;BME280;46939;48.940;8.258;2023-01-30T00:56:29;101250.22;;;7.64;42.54
61055;BME280;46939;48.940;8.258;2023-01-30T00:59:00;101238.75;;;7.18;43.59
61055;BME280;46939;48.940;8.258;2023-01-30T01:01:29;101246.94;;;7.25;43.55
61055;BME280;46939;48.940;8.258;2023-01-30T01:03:57;101257.06;;;6.44;44.97
61055;BME280;46939;48.940;8.258;2023-01-30T01:06:25;101257.84;;;6.83;44.53
61055;BME280;46939;48.940;8.258;2023-01-30T01:08:54;101253.56;;;7.29;43.38
61055;BME280;46939;48.940;8.258;2023-01-30T01:11:22;101258.56;;;7.22;43.42
61055;BME280;46939;48.940;8.258;2023-01-30T01:13:54;101261.31;;;6.93;43.97
61055;BME280;46939;48.940;8.258;2023-01-30T01:16:26;101261.09;;;7.24;43.36
61055;BME280;46939;48.940;8.258;2023-01-30T01:19:05;101275.13;;;7.52;42.48
61055;BME280;46939;48.940;8.258;2023-01-30T01:21:41;101284.91;;;7.69;42.26
61055;BME280;46939;48.940;8.258;2023-01-30T01:24:13;101284.47;;;7.74;42.04
61055;BME280;46939;48.940;8.258;2023-01-30T01:26:42;101267.50;;;7.49;42.68
61055;BME280;46939;48.940;8.258;2023-01-30T01:29:11;101253.34;;;7.50;42.50
61055;BME280;46939;48.940;8.258;2023-01-30T01:31:43;101264.59;;;7.05;43.53
61055;BME280;46939;48.940;8.258;2023-01-30T01:34:11;101263.44;;;6.41;44.92
61055;BME280;46939;48.940;8.258;2023-01-30T01:36:39;101253.03;;;6.49;45.15
61055;BME280;46939;48.940;8.258;2023-01-30T01:39:08;101246.81;;;7.17;43.62
61055;BME280;46939;48.940;8.258;2023-01-30T01:41:36;101242.91;;;6.64;44.31
61055;BME280;46939;48.940;8.258;2023-01-30T01:44:04;101224.81;;;7.08;43.56
61055;BME280;46939;48.940;8.258;2023-01-30T01:46:35;101211.84;;;7.52;42.72
61055;BME280;46939;48.940;8.258;2023-01-30T01:49:12;101201.19;;;7.16;43.34
61055;BME280;46939;48.940;8.258;2023-01-30T01:51:48;101203.47;;;6.92;44.02
61055;BME280;46939;48.940;8.258;2023-01-30T01:54:22;101186.69;;;7.02;43.63
61055;BME280;46939;48.940;8.258;2023-01-30T01:56:52;101195.56;;;7.29;43.38
61055;BME280;46939;48.940;8.258;2023-01-30T01:59:25;101180.00;;;7.36;43.07
61055;BME280;46939;48.940;8.258;2023-01-30T02:01:59;101190.75;;;7.52;42.79
61055;BME280;46939;48.940;8.258;2023-01-30T02:04:31;101203.66;;;7.27;43.17
61055;BME280;46939;48.940;8.258;2023-01-30T02:07:13;101222.94;;;6.81;43.99
61055;BME280;46939;48.940;8.258;2023-01-30T02:09:43;101223.84;;;6.99;43.90
61055;BME280;46939;48.940;8.258;2023-01-30T02:12:13;101188.47;;;7.12;44.03
61055;BME280;46939;48.940;8.258;2023-01-30T02:14:42;101152.88;;;7.25;43.60
61055;BME280;46939;48.940;8.258;2023-01-30T02:17:11;101144.47;;;7.40;43.30
61055;BME280;46939;48.940;8.258;2023-01-30T02:19:46;101159.41;;;6.94;44.18
61055;BME280;46939;48.940;8.258;2023-01-30T02:22:35;101159.31;;;7.13;43.86
61055;BME280;46939;48.940;8.258;2023-01-30T02:25:21;101163.03;;;6.93;44.42
61055;BME280;46939;48.940;8.258;2023-01-30T02:28:22;101153.66;;;7.36;43.38
61055;BME280;46939;48.940;8.258;2023-01-30T02:34:20;101142.94;;;7.82;42.83
61055;BME280;46939;48.940;8.258;2023-01-30T02:37:01;101148.63;;;7.42;43.65
61055;BME280;46939;48.940;8.258;2023-01-30T02:39:44;101120.75;;;7.40;43.58
61055;BME280;46939;48.940;8.258;2023-01-30T02:42:22;101106.38;;;7.88;42.21
61055;BME280;46939;48.940;8.258;2023-01-30T02:44:54;101094.25;;;7.77;42.51
61055;BME280;46939;48.940;8.258;2023-01-30T02:47:29;101069.00;;;7.56;42.99
61055;BME280;46939;48.940;8.258;2023-01-30T02:50:03;101039.03;;;7.40;42.94
61055;BME280;46939;48.940;8.258;2023-01-30T02:52:35;101020.44;;;7.23;43.33
61055;BME280;46939;48.940;8.258;2023-01-30T02:55:08;101033.00;;;7.65;42.39
61055;BME280;46939;48.940;8.258;2023-01-30T02:57:37;101035.25;;;7.24;42.71
61055;BME280;46939;48.940;8.258;2023-01-30T03:00:07;101060.22;;;7.92;42.00
61055;BME280;46939;48.940;8.258;2023-01-30T03:03:04;101055.81;;;7.92;41.71
61055;BME280;46939;48.940;8.258;2023-01-30T03:05:49;101048.94;;;7.10;43.59
61055;BME280;46939;48.940;8.258;2023-01-30T03:08:26;101023.53;;;6.91;44.35
61055;BME280;46939;48.940;8.258;2023-01-30T03:10:59;101007.31;;;7.49;43.10
61055;BME280;46939;48.940;8.258;2023-01-30T03:13:38;100993.97;;;7.69;42.73
61055;BME280;46939;48.940;8.258;2023-01-30T03:16:12;101004.19;;;7.46;42.91
61055;BME280;46939;48.940;8.258;2023-01-30T03:18:45;101001.22;;;7.13;43.63
61055;BME280;46939;48.940;8.258;2023-01-30T03:21:14;101000.09;;;7.16;43.72
61055;BME280;46939;48.940;8.258;2023-01-30T03:23:43;101015.69;;;7.45;43.10
61055;BME280;46939;48.940;8.258;2023-01-30T03:26:17;101032.09;;;6.75;44.42
61055;BME280;46939;48.940;8.258;2023-01-30T03:28:48;101037.53;;;6.92;44.16
61055;BME280;46939;48.940;8.258;2023-01-30T03:31:17;101028.78;;;7.01;44.12
61055;BME280;46939;48.940;8.258;2023-01-30T03:33:48;101046.19;;;7.29;43.64
61055;BME280;46939;48.940;8.258;2023-01-30T03:36:17;101045.66;;;6.80;44.90
61055;BME280;46939;48.940;8.258;2023-01-30T03:38:45;101037.34;;;7.03;44.44
61055;BME280;46939;48.940;8.258;2023-01-30T03:41:14;101039.41;;;6.81;44.58
61055;BME280;46939;48.940;8.258;2023-01-30T03:43:42;101038.59;;;7.62;43.07
61055;BME280;46939;48.940;8.258;2023-01-30T03:46:11;101047.72;;;7.94;42.20
61055;BME280;46939;48.940;8.258;2023-01-30T03:48:39;101049.00;;;7.46;43.04
61055;BME280;46939;48.940;8.258;2023-01-30T03:51:10;101049.88;;;7.37;43.18
61055;BME280;46939;48.940;8.258;2023-01-30T03:53:38;101064.66;;;7.47;43.17
61055;BME280;46939;48.940;8.258;2023-01-30T03:56:06;101047.78;;;7.58;42.85
61055;BME280;46939;48.940;8.258;2023-01-30T03:58:35;101043.78;;;6.91;43.93
61055;BME280;46939;48.940;8.258;2023-01-30T04:01:03;101038.06;;;7.58;42.76
61055;BME280;46939;48.940;8.258;2023-01-30T04:03:32;101035.81;;;7.46;43.44
61055;BME280;46939;48.940;8.258;2023-01-30T04:06:00;101041.59;;;6.86;44.33
61055;BME280;46939;48.940;8.258;2023-01-30T04:08:31;101052.06;;;7.41;43.33
61055;BME280;46939;48.940;8.258;2023-01-30T04:11:03;101052.13;;;7.85;42.07
61055;BME280;46939;48.940;8.258;2023-01-30T04:13:32;101048.91;;;7.20;43.52
61055;BME280;46939;48.940;8.258;2023-01-30T04:16:14;101047.03;;;6.84;43.98
61055;BME280;46939;48.940;8.258;2023-01-30T04:18:43;101037.78;;;6.80;44.68
61055;BME280;46939;48.940;8.258;2023-01-30T04:21:12;101044.16;;;7.41;43.09
61055;BME280;46939;48.940;8.258;2023-01-30T04:23:46;101036.75;;;7.80;42.14
61055;BME280;46939;48.940;8.258;2023-01-30T04:26:17;101046.56;;;7.70;42.61
61055;BME280;46939;48.940;8.258;2023-01-30T04:28:45;101042.16;;;7.97;42.10
61055;BME280;46939;48.940;8.258;2023-01-30T04:31:14;101036.44;;;8.10;41.73
61055;BME280;46939;48.940;8.258;2023-01-30T04:33:42;101031.25;;;8.26;41.51
61055;BME280;46939;48.940;8.258;2023-01-30T04:36:10;101049.50;;;8.11;41.77
61055;BME280;46939;48.940;8.258;2023-01-30T04:38:39;101047.09;;;7.56;42.83
61055;BME280;46939;48.940;8.258;2023-01-30T04:41:10;101041.09;;;7.90;41.87
61055;BME280;46939;48.940;8.258;2023-01-30T04:43:39;101049.56;;;8.19;41.35
61055;BME280;46939;48.940;8.258;2023-01-30T04:46:07;101048.22;;;8.41;41.13
61055;BME280;46939;48.940;8.258;2023-01-30T04:48:35;101042.34;;;7.77;42.25
61055;BME280;46939;48.940;8.258;2023-01-30T04:51:04;101055.16;;;7.54;42.89
61055;BME280;46939;48.940;8.258;2023-01-30T04:53:32;101057.72;;;7.28;42.84
61055;BME280;46939;48.940;8.258;2023-01-30T04:56:01;101045.56;;;7.71;42.44
61055;BME280;46939;48.940;8.258;2023-01-30T04:58:32;101040.03;;;8.00;42.05
61055;BME280;46939;48.940;8.258;2023-01-30T05:01:14;101036.19;;;7.15;43.52
61055;BME280;46939;48.940;8.258;2023-01-30T05:03:42;101039.50;;;6.62;44.89
61055;BME280;46939;48.940;8.258;2023-01-30T05:06:11;101040.00;;;7.21;43.58
61055;BME280;46939;48.940;8.258;2023-01-30T05:08:39;101027.97;;;7.98;42.04
61055;BME280;46939;48.940;8.258;2023-01-30T05:11:07;101023.28;;;7.48;42.77
61055;BME280;46939;48.940;8.258;2023-01-30T05:13:38;101017.75;;;6.32;45.79
61055;BME280;46939;48.940;8.258;2023-01-30T05:16:08;101010.81;;;6.31;45.31
61055;BME280;46939;48.940;8.258;2023-01-30T05:18:36;101012.59;;;7.31;43.67
61055;BME280;46939;48.940;8.258;2023-01-30T05:21:06;101009.06;;;7.58;42.96
61055;BME280;46939;48.940;8.258;2023-01-30T05:23:34;101010.00;;;6.58;44.49
61055;BME280;46939;48.940;8.258;2023-01-30T05:26:04;101019.75;;;7.39;43.57
61055;BME280;46939;48.940;8.258;2023-01-30T05:28:32;101022.31;;;7.49;43.63
61055;BME280;46939;48.940;8.258;2023-01-30T05:31:05;101028.03;;;7.62;43.32
61055;BME280;46939;48.940;8.258;2023-01-30T05:33:34;101002.81;;;7.06;44.44
61055;BME280;46939;48.940;8.258;2023-01-30T05:36:03;101002.81;;;7.06;44.39
61055;BME280;46939;48.940;8.258;2023-01-30T05:38:32;101008.88;;;7.60;43.83
61055;BME280;46939;48.940;8.258;2023-01-30T05:41:01;100994.38;;;7.02;44.23
61055;BME280;46939;48.940;8.258;2023-01-30T05:43:30;101002.00;;;6.23;46.42
61055;BME280;46939;48.940;8.258;2023-01-30T05:46:04;100990.81;;;6.94;44.72
61055;BME280;46939;48.940;8.258;2023-01-30T05:48:33;100995.50;;;7.00;45.13
61055;BME280;46939;48.940;8.258;2023-01-30T05:51:01;100996.47;;;6.81;45.37
61055;BME280;46939;48.940;8.258;2023-01-30T05:53:31;101008.53;;;7.55;43.42
61055;BME280;46939;48.940;8.258;2023-01-30T05:56:01;101007.25;;;7.23;44.21
61055;BME280;46939;48.940;8.258;2023-01-30T05:58:30;100997.31;;;6.72;45.15
61055;BME280;46939;48.940;8.258;2023-01-30T06:00:59;100993.69;;;7.18;44.01
61055;BME280;46939;48.940;8.258;2023-01-30T06:03:31;100994.28;;;7.30;43.73
61055;BME280;46939;48.940;8.258;2023-01-30T06:06:00;100995.41;;;6.92;45.03
61055;BME280;46939;48.940;8.258;2023-01-30T06:08:28;100984.66;;;7.39;44.77
61055;BME280;46939;48.940;8.258;2023-01-30T06:10:59;100994.13;;;7.67;44.27
61055;BME280;46939;48.940;8.258;2023-01-30T06:13:27;100996.41;;;7.26;45.38
61055;BME280;46939;48.940;8.258;2023-01-30T06:15:56;100985.44;;;8.01;43.57
61055;BME280;46939;48.940;8.258;2023-01-30T06:18:24;100978.47;;;7.30;44.88
61055;BME280;46939;48.940;8.258;2023-01-30T06:20:55;100962.22;;;6.99;45.40
61055;BME280;46939;48.940;8.258;2023-01-30T06:23:24;100969.16;;;7.53;44.73
61055;BME280;46939;48.940;8.258;2023-01-30T06:25:53;100962.47;;;6.32;47.53
61055;BME280;46939;48.940;8.258;2023-01-30T06:28:22;100957.31;;;7.22;46.17
61055;BME280;46939;48.940;8.258;2023-01-30T06:30:51;100951.34;;;6.11;48.54
61055;BME280;46939;48.940;8.258;2023-01-30T06:33:19;100953.66;;;6.51;48.51
61055;BME280;46939;48.940;8.258;2023-01-30T06:35:50;100938.50;;;6.63;47.84
61055;BME280;46939;48.940;8.258;2023-01-30T06:38:21;100944.44;;;6.83;47.57
61055;BME280;46939;48.940;8.258;2023-01-30T06:40:50;100942.63;;;6.83;47.04
61055;BME280;46939;48.940;8.258;2023-01-30T06:43:18;100956.38;;;6.59;48.00
61055;BME280;46939;48.940;8.258;2023-01-30T06:45:46;100959.91;;;6.23;48.67
61055;BME280;46939;48.940;8.258;2023-01-30T06:48:15;100956.84;;;6.27;48.42
61055;BME280;46939;48.940;8.258;2023-01-30T06:50:45;100960.72;;;6.51;47.62
61055;BME280;46939;48.940;8.258;2023-01-30T06:53:14;100959.84;;;6.60;47.61
61055;BME280;46939;48.940;8.258;2023-01-30T06:55:45;100964.13;;;6.89;46.88
61055;BME280;46939;48.940;8.258;2023-01-30T06:58:14;100974.00;;;6.59;47.40
61055;BME280;46939;48.940;8.258;2023-01-30T07:00:42;100981.09;;;6.49;47.96
61055;BME280;46939;48.940;8.258;2023-01-30T07:03:12;100993.53;;;6.56;47.72
61055;BME280;46939;48.940;8.258;2023-01-30T07:05:41;100993.94;;;6.24;48.82
61055;BME280;46939;48.940;8.258;2023-01-30T07:08:10;100998.94;;;6.55;47.94
61055;BME280;46939;48.940;8.258;2023-01-30T07:10:40;100996.31;;;6.55;48.10
61055;BME280;46939;48.940;8.258;2023-01-30T07:13:11;100995.47;;;6.82;47.46
61055;BME280;46939;48.940;8.258;2023-01-30T07:15:40;101000.63;;;7.55;46.07
61055;BME280;46939;48.940;8.258;2023-01-30T07:18:08;101011.41;;;7.44;46.10
61055;BME280;46939;48.940;8.258;2023-01-30T07:20:36;101002.09;;;6.86;47.21
61055;BME280;46939;48.940;8.258;2023-01-30T07:23:06;101010.66;;;7.16;46.83
61055;BME280;46939;48.940;8.258;2023-01-30T07:25:35;101015.97;;;7.06;46.57
61055;BME280;46939;48.940;8.258;2023-01-30T07:28:03;101016.81;;;7.42;46.13
61055;BME280;46939;48.940;8.258;2023-01-30T07:30:34;101025.78;;;7.31;45.48
61055;BME280;46939;48.940;8.258;2023-01-30T07:33:04;101005.75;;;6.48;48.08
61055;BME280;46939;48.940;8.258;2023-01-30T07:35:33;101017.63;;;7.07;46.67
61055;BME280;46939;48.940;8.258;2023-01-30T07:38:02;101017.69;;;5.85;49.08
61055;BME280;46939;48.940;8.258;2023-01-30T07:40:31;101008.28;;;5.83;49.71
61055;BME280;46939;48.940;8.258;2023-01-30T07:43:01;100989.72;;;6.41;48.63
61055;BME280;46939;48.940;8.258;2023-01-30T07:45:37;100997.19;;;6.73;48.50
61055;BME280;46939;48.940;8.258;2023-01-30T07:48:06;100997.78;;;6.40;49.41
61055;BME280;46939;48.940;8.258;2023-01-30T07:50:35;100986.63;;;6.55;49.11
61055;BME280;46939;48.940;8.258;2023-01-30T07:53:04;100977.66;;;7.29;47.33
61055;BME280;46939;48.940;8.258;2023-01-30T07:55:33;100965.75;;;6.44;48.76
61055;BME280;46939;48.940;8.258;2023-01-30T07:58:02;100948.03;;;6.64;48.82
61055;BME280;46939;48.940;8.258;2023-01-30T08:00:31;100970.53;;;6.58;49.32
61055;BME280;46939;48.940;8.258;2023-01-30T08:03:02;100976.91;;;6.56;49.39
61055;BME280;46939;48.940;8.258;2023-01-30T08:05:30;100975.38;;;6.26;49.41
61055;BME280;46939;48.940;8.258;2023-01-30T08:07:59;100999.97;;;6.44;49.25
61055;BME280;46939;48.940;8.258;2023-01-30T08:10:27;100990.06;;;6.28;49.85
61055;BME280;46939;48.940;8.258;2023-01-30T08:12:56;100987.56;;;6.82;48.40
61055;BME280;46939;48.940;8.258;2023-01-30T08:15:24;100981.88;;;7.04;47.69
61055;BME280;46939;48.940;8.258;2023-01-30T08:17:53;100984.44;;;6.69;48.28
61055;BME280;46939;48.940;8.258;2023-01-30T08:20:25;100976.81;;;6.48;48.46
61055;BME280;46939;48.940;8.258;2023-01-30T08:22:54;100972.91;;;7.33;46.42
61055;BME280;46939;48.940;8.258;2023-01-30T08:25:23;100988.50;;;7.44;46.42
61055;BME280;46939;48.940;8.258;2023-01-30T08:27:51;100998.28;;;6.80;47.32
61055;BME280;46939;48.940;8.258;2023-01-30T08:30:20;100993.91;;;6.89;47.77
61055;BME280;46939;48.940;8.258;2023-01-30T08:32:49;100999.41;;;6.41;48.97
61055;BME280;46939;48.940;8.258;2023-01-30T08:35:17;101002.69;;;6.52;49.39
61055;BME280;46939;48.940;8.258;2023-01-30T08:37:48;101006.66;;;7.12;48.18
61055;BME280;46939;48.940;8.258;2023-01-30T08:40:17;100998.81;;;7.55;46.97
61055;BME280;46939;48.940;8.258;2023-01-30T08:42:45;101006.47;;;6.50;49.60
61055;BME280;46939;48.940;8.258;2023-01-30T08:45:14;101009.03;;;6.59;49.70
61055;BME280;46939;48.940;8.258;2023-01-30T08:47:42;101002.13;;;7.04;48.36
61055;BME280;46939;48.940;8.258;2023-01-30T08:50:11;100996.03;;;7.03;48.29
61055;BME280;46939;48.940;8.258;2023-01-30T08:52:39;100989.38;;;7.71;47.15
61055;BME280;46939;48.940;8.258;2023-01-30T08:55:10;100969.66;;;7.83;46.32
61055;BME280;46939;48.940;8.258;2023-01-30T08:57:38;100967.25;;;8.50;45.29
61055;BME280;46939;48.940;8.258;2023-01-30T09:00:08;100970.81;;;8.91;43.82
61055;BME280;46939;48.940;8.258;2023-01-30T09:02:37;100973.28;;;8.08;45.94
61055;BME280;46939;48.940;8.258;2023-01-30T09:05:06;100974.78;;;6.87;47.81
61055;BME280;46939;48.940;8.258;2023-01-30T09:07:35;100972.88;;;7.95;46.04
61055;BME280;46939;48.940;8.258;2023-01-30T09:10:04;100958.53;;;7.71;46.35
61055;BME280;46939;48.940;8.258;2023-01-30T09:12:35;100970.03;;;7.26;48.00
61055;BME280;46939;48.940;8.258;2023-01-30T09:15:05;100984.94;;;6.82;48.68
61055;BME280;46939;48.940;8.258;2023-01-30T09:17:34;100969.97;;;7.18;48.19
61055;BME280;46939;48.940;8.258;2023-01-30T09:20:04;100967.75;;;6.60;50.02
61055;BME280;46939;48.940;8.258;2023-01-30T09:22:32;100962.47;;;7.05;48.56
61055;BME280;46939;48.940;8.258;2023-01-30T09:25:01;100958.31;;;6.85;49.19
61055;BME280;46939;48.940;8.258;2023-01-30T09:27:29;100957.38;;;6.76;48.60
61055;BME280;46939;48.940;8.258;2023-01-30T09:30:00;100968.09;;;7.28;48.20
61055;BME280;46939;48.940;8.258;2023-01-30T09:32:28;100964.47;;;6.94;48.18
61055;BME280;46939;48.940;8.258;2023-01-30T09:34:57;100977.19;;;6.80;48.84
61055;BME280;46939;48.940;8.258;2023-01-30T09:37:25;100981.63;;;7.33;48.38
61055;BME280;46939;48.940;8.258;2023-01-30T09:39:53;100983.97;;;7.54;47.64
61055;BME280;46939;48.940;8.258;2023-01-30T09:42:32;100975.16;;;7.10;48.53
61055;BME280;46939;48.940;8.258;2023-01-30T09:45:25;100959.97;;;7.04;49.32
61055;BME280;46939;48.940;8.258;2023-01-30T09:48:04;100956.25;;;6.79;49.72
61055;BME280;46939;48.940;8.258;2023-01-30T09:50:46;100962.00;;;6.92;50.03
61055;BME280;46939;48.940;8.258;2023-01-30T09:53:21;100933.38;;;7.77;48.21
61055;BME280;46939;48.940;8.258;2023-01-30T09:55:53;100943.22;;;6.59;51.26
61055;BME280;46939;48.940;8.258;2023-01-30T09:58:28;100940.78;;;6.94;50.46
61055;BME280;46939;48.940;8.258;2023-01-30T10:01:05;100930.94;;;7.57;49.47
61055;BME280;46939;48.940;8.258;2023-01-30T10:03:51;100931.81;;;7.92;48.96
61055;BME280;46939;48.940;8.258;2023-01-30T10:06:22;100952.94;;;7.48;50.26
61055;BME280;46939;48.940;8.258;2023-01-30T10:08:56;100960.66;;;7.94;49.24
61055;BME280;46939;48.940;8.258;2023-01-30T10:11:38;100953.09;;;7.99;49.11
61055;BME280;46939;48.940;8.258;2023-01-30T10:14:26;100954.69;;;8.18;49.03
61055;BME280;46939;48.940;8.258;2023-01-30T10:17:18;100941.28;;;7.33;50.95
61055;BME280;46939;48.940;8.258;2023-01-30T10:20:11;100924.91;;;7.99;49.88
61055;BME280;46939;48.940;8.258;2023-01-30T10:22:52;100938.38;;;8.22;49.67
61055;BME280;46939;48.940;8.258;2023-01-30T10:25:30;100940.63;;;7.57;50.83
61055;BME280;46939;48.940;8.258;2023-01-30T10:28:04;100947.00;;;7.46;51.69
61055;BME280;46939;48.940;8.258;2023-01-30T10:30:35;100932.69;;;7.75;50.88
61055;BME280;46939;48.940;8.258;2023-01-30T10:33:13;100915.78;;;7.86;51.01
61055;BME280;46939;48.940;8.258;2023-01-30T10:36:01;100918.72;;;7.82;50.72
61055;BME280;46939;48.940;8.258;2023-01-30T10:38:34;100919.41;;;8.19;50.50
61055;BME280;46939;48.940;8.258;2023-01-30T10:41:10;100908.81;;;8.53;49.57
61055;BME280;46939;48.940;8.258;2023-01-30T10:43:43;100904.13;;;7.96;50.44
61055;BME280;46939;48.940;8.258;2023-01-30T10:46:21;100898.03;;;7.96;51.47
61055;BME280;46939;48.940;8.258;2023-01-30T10:48:58;100909.81;;;8.52;50.03
61055;BME280;46939;48.940;8.258;2023-01-30T10:51:40;100918.88;;;7.55;52.21
61055;BME280;46939;48.940;8.258;2023-01-30T10:54:15;100913.47;;;8.25;50.66
61055;BME280;46939;48.940;8.258;2023-01-30T10:56:51;100916.47;;;7.62;52.16
61055;BME280;46939;48.940;8.258;2023-01-30T10:59:22;100920.78;;;7.97;51.33
61055;BME280;46939;48.940;8.258;2023-01-30T11:01:58;100922.91;;;8.27;50.59
61055;BME280;46939;48.940;8.258;2023-01-30T11:04:35;100923.69;;;7.86;51.38
61055;BME280;46939;48.940;8.258;2023-01-30T11:07:05;100934.31;;;8.36;50.28
61055;BME280;46939;48.940;8.258;2023-01-30T11:09:38;100932.78;;;8.68;49.42
61055;BME280;46939;48.940;8.258;2023-01-30T11:12:07;100929.97;;;8.61;49.22
61055;BME280;46939;48.940;8.258;2023-01-30T11:14:51;100923.19;;;8.59;49.79
61055;BME280;46939;48.940;8.258;2023-01-30T11:17:28;100920.44;;;8.76;49.33
61055;BME280;46939;48.940;8.258;2023-01-30T11:20:02;100917.06;;;8.42;50.18
61055;BME280;46939;48.940;8.258;2023-01-30T11:22:33;100908.91;;;7.67;51.89
61055;BME280;46939;48.940;8.258;2023-01-30T11:25:05;100911.84;;;8.32;51.13
61055;BME280;46939;48.940;8.258;2023-01-30T11:27:40;100930.00;;;7.67;53.07
61055;BME280;46939;48.940;8.258;2023-01-30T11:30:13;100911.53;;;7.93;52.50
61055;BME280;46939;48.940;8.258;2023-01-30T11:32:43;100913.84;;;7.44;54.08
61055;BME280;46939;48.940;8.258;2023-01-30T11:35:23;100914.41;;;7.73;53.19
61055;BME280;46939;48.940;8.258;2023-01-30T11:37:52;100909.97;;;7.56;53.69
61055;BME280;46939;48.940;8.258;2023-01-30T11:40:26;100903.13;;;8.31;51.96
61055;BME280;46939;48.940;8.258;2023-01-30T11:43:01;100901.03;;;8.43;51.76
61055;BME280;46939;48.940;8.258;2023-01-30T11:45:34;100903.88;;;8.16;52.44
61055;BME280;46939;48.940;8.258;2023-01-30T11:48:09;100913.69;;;8.31;51.63
61055;BME280;46939;48.940;8.258;2023-01-30T11:50:43;100915.34;;;7.72;53.41
61055;BME280;46939;48.940;8.258;2023-01-30T11:53:24;100914.56;;;7.80;53.10
61055;BME280;46939;48.940;8.258;2023-01-30T11:55:58;100891.84;;;8.72;50.80
61055;BME280;46939;48.940;8.258;2023-01-30T11:58:29;100893.34;;;8.74;50.26
61055;BME280;46939;48.940;8.258;2023-01-30T12:00:59;100887.81;;;8.01;52.11
61055;BME280;46939;48.940;8.258;2023-01-30T12:03:30;100900.44;;;8.23;51.46
61055;BME280;46939;48.940;8.258;2023-01-30T12:06:02;100903.38;;;8.12;51.86
61055;BME280;46939;48.940;8.258;2023-01-30T12:08:36;100907.25;;;7.40;53.68
61055;BME280;46939;48.940;8.258;2023-01-30T12:11:23;100908.66;;;7.08;54.59
61055;BME280;46939;48.940;8.258;2023-01-30T12:13:52;100899.59;;;7.28;54.08
61055;BME280;46939;48.940;8.258;2023-01-30T12:16:25;100896.88;;;7.20;54.69
61055;BME280;46939;48.940;8.258;2023-01-30T12:19:02;100900.50;;;7.45;53.81
61055;BME280;46939;48.940;8.258;2023-01-30T12:21:42;100903.78;;;7.65;54.03
61055;BME280;46939;48.940;8.258;2023-01-30T12:24:19;100897.34;;;7.16;54.89
61055;BME280;46939;48.940;8.258;2023-01-30T12:26:54;100885.84;;;7.43;54.04
61055;BME280;46939;48.940;8.258;2023-01-30T12:29:28;100893.16;;;7.83;53.46
61055;BME280;46939;48.940;8.258;2023-01-30T12:32:01;100877.84;;;8.21;51.79
61055;BME280;46939;48.940;8.258;2023-01-30T12:34:31;100893.34;;;8.66;50.96
61055;BME280;46939;48.940;8.258;2023-01-30T12:37:14;100887.91;;;8.25;51.36
61055;BME280;46939;48.940;8.258;2023-01-30T12:39:55;100891.31;;;7.75;52.76
61055;BME280;46939;48.940;8.258;2023-01-30T12:42:46;100886.72;;;7.77;52.98
61055;BME280;46939;48.940;8.258;2023-01-30T12:45:21;100870.22;;;7.75;53.27
61055;BME280;46939;48.940;8.258;2023-01-30T12:48:16;100883.06;;;8.04;52.40
61055;BME280;46939;48.940;8.258;2023-01-30T12:50:56;100888.00;;;7.21;54.39
61055;BME280;46939;48.940;8.258;2023-01-30T12:53:39;100894.16;;;7.56;53.77
61055;BME280;46939;48.940;8.258;2023-01-30T12:56:31;100881.78;;;7.82;53.02
61055;BME280;46939;48.940;8.258;2023-01-30T12:59:07;100895.31;;;7.88;53.28
61055;BME280;46939;48.940;8.258;2023-01-30T13:01:46;100906.56;;;7.38;54.48
61055;BME280;46939;48.940;8.258;2023-01-30T13:04:27;100913.28;;;8.18;51.70
61055;BME280;46939;48.940;8.258;2023-01-30T13:07:10;100916.88;;;8.43;51.27
61055;BME280;46939;48.940;8.258;2023-01-30T13:09:57;100915.13;;;8.26;51.95
61055;BME280;46939;48.940;8.258;2023-01-30T13:12:35;100922.84;;;8.11;51.42
61055;BME280;46939;48.940;8.258;2023-01-30T13:15:14;100933.59;;;8.26;52.10
61055;BME280;46939;48.940;8.258;2023-01-30T13:18:00;100932.59;;;7.85;53.15
61055;BME280;46939;48.940;8.258;2023-01-30T13:20:43;100934.78;;;8.31;51.69
61055;BME280;46939;48.940;8.258;2023-01-30T13:23:16;100921.63;;;8.05;52.52
61055;BME280;46939;48.940;8.258;2023-01-30T13:25:55;100928.50;;;7.64;53.59
61055;BME280;46939;48.940;8.258;2023-01-30T13:28:28;100924.06;;;8.33;52.71
61055;BME280;46939;48.940;8.258;2023-01-30T13:30:59;100921.84;;;8.12;52.73